Time,TemperatureF,DewpointF,PressureIn,WindDirection,WindDirectionDegrees,WindSpeedMPH,WindSpeedGustMPH,Humidity,HourlyPrecipIn,Conditions,Clouds,dailyrainin,SoftwareType,DateUTC
2013-10-29 00:01:00,50.2,48.5,30.19,NW,311,0.0,0.0,94,0.00,,,0.12,Wunderground v.1.15,2013-10-29 04:01:00,
2013-10-29 00:02:00,50.2,48.5,30.19,NW,311,0.0,0.0,94,0.00,,,0.00,Wunderground v.1.15,2013-10-29 04:02:00,
2013-10-29 00:03:00,50.1,48.4,30.19,NW,311,0.0,0.0,94,0.00,,,0.00,Wunderground v.1.15,2013-10-29 04:03:00,
2013-10-29 00:05:00,50.1,48.4,30.19,NW,311,0.0,0.0,94,0.00,,,0.00,Wunderground v.1.15,2013-10-29 04:05:00,
2013-10-29 00:06:00,50.1,48.4,30.19,NW,311,0.0,0.0,94,0.00,,,0.00,Wunderground v.1.15,2013-10-29 04:06:00,
2013-10-29 00:08:00,50.1,48.4,30.19,NW,311,0.0,0.0,94,0.00,,,0.00,Wunderground v.1.15,2013-10-29 04:08:00,
2013-10-29 00:14:00,50.1,48.4,30.19,NW,311,0.0,0.0,94,0.00,,,0.00,Wunderground v.1.15,2013-10-29 04:14:00,
2013-10-29 00:19:00,50.1,48.4,30.18,NW,311,0.0,0.0,94,0.00,,,0.00,Wunderground v.1.15,2013-10-29 04:19:00,
2013-10-29 00:25:00,50.0,48.3,30.18,NW,311,0.0,0.0,94,0.00,,,0.00,Wunderground v.1.15,2013-10-29 04:25:00,
2013-10-29 00:30:00,50.0,48.3,30.18,NW,311,0.0,0.0,94,0.00,,,0.00,Wunderground v.1.15,2013-10-29 04:30:00,
2013-10-29 00:36:00,49.9,48.2,30.18,NW,311,0.0,1.0,94,0.00,,,0.00,Wunderground v.1.15,2013-10-29 04:36:00,
2013-10-29 00:42:00,49.9,48.2,30.18,NW,311,0.0,0.0,94,0.00,,,0.00,Wunderground v.1.15,2013-10-29 04:42:00,
2013-10-29 00:48:00,49.8,48.1,30.18,NW,311,0.0,0.0,94,0.00,,,0.00,Wunderground v.1.15,2013-10-29 04:48:00,
2013-10-29 00:54:00,49.7,48.0,30.18,NW,313,0.0,0.0,94,0.00,,,0.00,Wunderground v.1.15,2013-10-29 04:54:00,
2013-10-29 01:00:00,49.6,47.9,30.18,NW,315,0.0,1.0,94,0.00,,,0.00,Wunderground v.1.15,2013-10-29 05:00:00,
2013-10-29 01:06:00,49.5,47.8,30.17,NW,317,0.0,2.0,94,0.00,,,0.00,Wunderground v.1.15,2013-10-29 05:06:00,
2013-10-29 01:12:00,49.6,48.2,30.17,NNW,333,1.0,1.0,95,0.00,,,0.00,Wunderground v.1.15,2013-10-29 05:12:00,
2013-10-29 01:18:00,49.8,48.4,30.17,NNW,330,0.0,1.0,95,0.00,,,0.00,Wunderground v.1.15,2013-10-29 05:18:00,
2013-10-29 01:24:00,49.7,48.3,30.17,NNW,330,0.0,1.0,95,0.00,,,0.00,Wunderground v.1.15,2013-10-29 05:24:00,
2013-10-29 01:29:00,49.7,48.3,30.17,North,360,1.0,2.0,95,0.00,,,0.00,Wunderground v.1.15,2013-10-29 05:29:00,
2013-10-29 01:35:00,49.8,48.4,30.17,North,355,1.0,3.0,95,0.00,,,0.00,Wunderground v.1.15,2013-10-29 05:35:00,
2013-10-29 01:41:00,50.0,48.6,30.17,North,355,2.0,2.0,95,0.00,,,0.00,Wunderground v.1.15,2013-10-29 05:41:00,
2013-10-29 01:48:00,50.4,49.0,30.17,North,355,1.0,1.0,95,0.00,,,0.00,Wunderground v.1.15,2013-10-29 05:48:00,
2013-10-29 01:54:00,50.4,49.0,30.17,North,355,1.0,1.0,95,0.00,,,0.00,Wunderground v.1.15,2013-10-29 05:54:00,
2013-10-29 02:00:00,50.4,48.7,30.17,North,355,0.0,0.0,94,0.00,,,0.00,Wunderground v.1.15,2013-10-29 06:00:00,
2013-10-29 02:06:00,50.1,48.4,30.17,North,355,0.0,0.0,94,0.00,,,0.00,Wunderground v.1.15,2013-10-29 06:06:00,
2013-10-29 02:11:00,49.9,48.2,30.17,North,355,0.0,0.0,94,0.00,,,0.00,Wunderground v.1.15,2013-10-29 06:11:00,
2013-10-29 02:16:00,49.7,48.0,30.17,North,355,0.0,0.0,94,0.00,,,0.00,Wunderground v.1.15,2013-10-29 06:16:00,
2013-10-29 02:22:00,49.6,47.9,30.17,North,355,0.0,0.0,94,0.00,,,0.00,Wunderground v.1.15,2013-10-29 06:22:00,
2013-10-29 02:28:00,49.5,48.1,30.18,North,355,0.0,0.0,95,0.00,,,0.00,Wunderground v.1.15,2013-10-29 06:28:00,
2013-10-29 02:34:00,49.6,48.2,30.18,North,355,0.0,1.0,95,0.00,,,0.00,Wunderground v.1.15,2013-10-29 06:34:00,
2013-10-29 02:39:00,49.8,48.4,30.18,NW,308,0.0,4.0,95,0.00,,,0.00,Wunderground v.1.15,2013-10-29 06:39:00,
2013-10-29 02:45:00,50.2,48.8,30.18,NW,314,1.0,2.0,95,0.00,,,0.00,Wunderground v.1.15,2013-10-29 06:45:00,
2013-10-29 02:51:00,50.4,48.7,30.18,NW,326,1.0,1.0,94,0.00,,,0.00,Wunderground v.1.15,2013-10-29 06:51:00,
2013-10-29 02:56:00,50.4,48.7,30.18,North,350,0.0,1.0,94,0.00,,,0.00,Wunderground v.1.15,2013-10-29 06:56:00,
2013-10-29 03:01:00,50.4,48.7,30.18,NNW,342,0.0,0.0,94,0.00,,,0.00,Wunderground v.1.15,2013-10-29 07:01:00,
2013-10-29 03:06:00,50.3,48.6,30.18,NNW,342,0.0,0.0,94,0.00,,,0.00,Wunderground v.1.15,2013-10-29 07:06:00,
2013-10-29 03:12:00,50.3,48.6,30.18,NNW,342,0.0,1.0,94,0.00,,,0.00,Wunderground v.1.15,2013-10-29 07:12:00,
2013-10-29 03:18:00,50.1,48.2,30.18,NNW,338,0.0,1.0,93,0.00,,,0.00,Wunderground v.1.15,2013-10-29 07:18:00,
2013-10-29 03:24:00,49.8,48.1,30.18,NNW,331,0.0,1.0,94,0.00,,,0.00,Wunderground v.1.15,2013-10-29 07:24:00,
2013-10-29 03:29:00,49.5,47.6,30.18,NNW,331,0.0,1.0,93,0.00,,,0.00,Wunderground v.1.15,2013-10-29 07:29:00,
2013-10-29 03:35:00,49.2,47.3,30.18,NNW,331,0.0,1.0,93,0.00,,,0.00,Wunderground v.1.15,2013-10-29 07:35:00,
2013-10-29 03:41:00,48.9,47.2,30.18,NNW,331,0.0,1.0,94,0.00,,,0.00,Wunderground v.1.15,2013-10-29 07:41:00,
2013-10-29 03:48:00,48.7,47.1,30.18,NNW,330,0.0,0.0,94,0.00,,,0.00,Wunderground v.1.15,2013-10-29 07:48:00,
2013-10-29 03:54:00,48.7,47.1,30.18,NNW,331,0.0,0.0,94,0.00,,,0.00,Wunderground v.1.15,2013-10-29 07:54:00,
2013-10-29 04:00:00,48.6,47.2,30.18,NNW,331,0.0,0.0,95,0.00,,,0.00,Wunderground v.1.15,2013-10-29 08:00:00,
2013-10-29 04:06:00,48.7,47.3,30.18,NNW,331,0.0,0.0,95,0.00,,,0.00,Wunderground v.1.15,2013-10-29 08:06:00,
2013-10-29 04:12:00,48.6,47.2,30.19,NNW,331,0.0,0.0,95,0.00,,,0.00,Wunderground v.1.15,2013-10-29 08:12:00,
2013-10-29 04:18:00,48.6,47.2,30.20,NNW,334,0.0,2.0,95,0.00,,,0.00,Wunderground v.1.15,2013-10-29 08:18:00,
2013-10-29 04:23:00,48.8,47.4,30.20,NE,39,1.0,2.0,95,0.00,,,0.00,Wunderground v.1.15,2013-10-29 08:23:00,
2013-10-29 04:29:00,49.1,47.7,30.20,NNE,26,1.0,3.0,95,0.00,,,0.00,Wunderground v.1.15,2013-10-29 08:29:00,
2013-10-29 04:35:00,49.2,47.8,30.20,NNE,23,1.0,2.0,95,0.00,,,0.00,Wunderground v.1.15,2013-10-29 08:35:00,
2013-10-29 04:41:00,49.2,47.8,30.21,North,360,1.0,1.0,95,0.00,,,0.00,Wunderground v.1.15,2013-10-29 08:41:00,
2013-10-29 04:48:00,49.3,47.9,30.20,North,5,1.0,1.0,95,0.00,,,0.00,Wunderground v.1.15,2013-10-29 08:48:00,
2013-10-29 04:54:00,49.2,47.8,30.20,North,360,0.0,1.0,95,0.00,,,0.00,Wunderground v.1.15,2013-10-29 08:54:00,
2013-10-29 04:59:00,49.1,47.7,30.19,North,360,0.0,1.0,95,0.00,,,0.00,Wunderground v.1.15,2013-10-29 08:59:00,
2013-10-29 05:05:00,48.9,47.2,30.19,North,360,0.0,1.0,94,0.00,,,0.00,Wunderground v.1.15,2013-10-29 09:05:00,
2013-10-29 05:11:00,48.7,47.3,30.20,North,360,0.0,1.0,95,0.00,,,0.00,Wunderground v.1.15,2013-10-29 09:11:00,
2013-10-29 05:16:00,48.6,47.2,30.20,North,360,0.0,1.0,95,0.00,,,0.00,Wunderground v.1.15,2013-10-29 09:16:00,
2013-10-29 05:21:00,48.8,47.4,30.21,North,360,1.0,1.0,95,0.00,,,0.00,Wunderground v.1.15,2013-10-29 09:21:00,
2013-10-29 05:27:00,48.9,47.5,30.21,North,355,1.0,1.0,95,0.00,,,0.00,Wunderground v.1.15,2013-10-29 09:27:00,
2013-10-29 05:33:00,48.9,47.5,30.22,North,5,1.0,1.0,95,0.00,,,0.00,Wunderground v.1.15,2013-10-29 09:33:00,
2013-10-29 05:38:00,49.0,47.6,30.22,NNW,348,1.0,1.0,95,0.00,,,0.00,Wunderground v.1.15,2013-10-29 09:38:00,
2013-10-29 05:44:00,49.0,47.6,30.22,NNE,15,1.0,2.0,95,0.00,,,0.00,Wunderground v.1.15,2013-10-29 09:44:00,
2013-10-29 05:49:00,48.9,47.5,30.21,NNE,15,1.0,1.0,95,0.00,,,0.00,Wunderground v.1.15,2013-10-29 09:49:00,
2013-10-29 05:55:00,48.8,47.4,30.21,NNE,15,0.0,2.0,95,0.00,,,0.00,Wunderground v.1.15,2013-10-29 09:55:00,
2013-10-29 06:00:00,48.6,47.2,30.22,NNE,15,0.0,0.0,95,0.00,,,0.00,Wunderground v.1.15,2013-10-29 10:00:00,
2013-10-29 06:06:00,48.4,47.0,30.22,NNE,15,1.0,2.0,95,0.00,,,0.00,Wunderground v.1.15,2013-10-29 10:06:00,
2013-10-29 06:11:00,48.4,47.0,30.23,NNE,15,0.0,0.0,95,0.00,,,0.00,Wunderground v.1.15,2013-10-29 10:11:00,
2013-10-29 06:17:00,48.4,47.0,30.22,NNE,15,0.0,1.0,95,0.00,,,0.00,Wunderground v.1.15,2013-10-29 10:17:00,
2013-10-29 06:23:00,48.3,46.9,30.22,NNE,15,0.0,0.0,95,0.00,,,0.00,Wunderground v.1.15,2013-10-29 10:23:00,
2013-10-29 06:28:00,48.4,47.3,30.22,NNE,15,0.0,0.0,96,0.00,,,0.00,Wunderground v.1.15,2013-10-29 10:28:00,
2013-10-29 06:34:00,48.4,47.3,30.23,NNE,15,0.0,0.0,96,0.00,,,0.00,Wunderground v.1.15,2013-10-29 10:34:00,
2013-10-29 06:39:00,48.6,47.5,30.23,North,355,0.0,0.0,96,0.00,,,0.00,Wunderground v.1.15,2013-10-29 10:39:00,
2013-10-29 06:44:00,48.6,47.5,30.23,North,355,0.0,0.0,96,0.00,,,0.00,Wunderground v.1.15,2013-10-29 10:44:00,
2013-10-29 06:50:00,48.6,47.5,30.24,North,355,0.0,0.0,96,0.00,,,0.00,Wunderground v.1.15,2013-10-29 10:50:00,
2013-10-29 06:55:00,48.5,47.1,30.23,North,350,0.0,1.0,95,0.00,,,0.00,Wunderground v.1.15,2013-10-29 10:55:00,
2013-10-29 07:00:00,48.5,47.1,30.24,North,350,0.0,0.0,95,0.00,,,0.01,Wunderground v.1.15,2013-10-29 11:00:00,
2013-10-29 07:06:00,48.5,47.1,30.24,North,350,0.0,1.0,95,0.00,,,0.01,Wunderground v.1.15,2013-10-29 11:06:00,
2013-10-29 07:12:00,48.3,46.9,30.24,North,350,0.0,2.0,95,0.00,,,0.01,Wunderground v.1.15,2013-10-29 11:12:00,
2013-10-29 07:18:00,48.1,46.7,30.24,North,350,1.0,2.0,95,0.00,,,0.01,Wunderground v.1.15,2013-10-29 11:18:00,
2013-10-29 07:24:00,47.9,46.5,30.24,North,350,1.0,2.0,95,0.00,,,0.01,Wunderground v.1.15,2013-10-29 11:24:00,
2013-10-29 07:29:00,47.9,46.5,30.24,North,350,0.0,2.0,95,0.00,,,0.01,Wunderground v.1.15,2013-10-29 11:29:00,
2013-10-29 07:35:00,47.9,46.8,30.25,North,350,0.0,0.0,96,0.00,,,0.01,Wunderground v.1.15,2013-10-29 11:35:00,
2013-10-29 07:41:00,48.1,47.0,30.25,North,350,0.0,0.0,96,0.00,,,0.01,Wunderground v.1.15,2013-10-29 11:41:00,
2013-10-29 07:48:00,48.3,47.2,30.25,North,350,0.0,0.0,96,0.00,,,0.01,Wunderground v.1.15,2013-10-29 11:48:00,
2013-10-29 07:54:00,48.3,47.2,30.25,North,350,0.0,0.0,96,0.00,,,0.01,Wunderground v.1.15,2013-10-29 11:54:00,
2013-10-29 07:59:00,48.1,46.7,30.25,North,350,0.0,2.0,95,0.00,,,0.01,Wunderground v.1.15,2013-10-29 11:59:00,
2013-10-29 08:05:00,47.8,46.4,30.26,North,355,0.0,1.0,95,0.00,,,0.01,Wunderground v.1.15,2013-10-29 12:05:00,
2013-10-29 08:11:00,47.6,46.2,30.26,North,355,1.0,2.0,95,0.00,,,0.01,Wunderground v.1.15,2013-10-29 12:11:00,
2013-10-29 08:16:00,47.6,46.2,30.27,North,355,1.0,2.0,95,0.00,,,0.01,Wunderground v.1.15,2013-10-29 12:16:00,
2013-10-29 08:22:00,47.8,46.7,30.27,NNW,331,1.0,1.0,96,0.00,,,0.01,Wunderground v.1.15,2013-10-29 12:22:00,
2013-10-29 08:28:00,48.2,47.1,30.27,NNW,345,1.0,2.0,96,0.00,,,0.01,Wunderground v.1.15,2013-10-29 12:28:00,
2013-10-29 08:33:00,48.5,47.4,30.27,NW,319,1.0,2.0,96,0.00,,,0.01,Wunderground v.1.15,2013-10-29 12:33:00,
2013-10-29 08:39:00,48.8,47.7,30.27,NNE,13,1.0,2.0,96,0.00,,,0.01,Wunderground v.1.15,2013-10-29 12:39:00,
2013-10-29 08:45:00,48.9,47.8,30.27,NNE,13,1.0,2.0,96,0.00,,,0.01,Wunderground v.1.15,2013-10-29 12:45:00,
2013-10-29 08:51:00,49.1,48.0,30.28,NE,36,1.0,2.0,96,0.00,,,0.01,Wunderground v.1.15,2013-10-29 12:51:00,
2013-10-29 08:56:00,49.4,48.0,30.28,NNW,347,1.0,2.0,95,0.00,,,0.01,Wunderground v.1.15,2013-10-29 12:56:00,
2013-10-29 09:01:00,49.6,48.2,30.27,NNW,348,1.0,1.0,95,0.00,,,0.01,Wunderground v.1.15,2013-10-29 13:01:00,
2013-10-29 09:07:00,49.9,48.5,30.27,NNW,348,1.0,2.0,95,0.00,,,0.01,Wunderground v.1.15,2013-10-29 13:07:00,
2013-10-29 09:13:00,50.1,48.4,30.28,North,360,1.0,1.0,94,0.00,,,0.01,Wunderground v.1.15,2013-10-29 13:13:00,
2013-10-29 09:18:00,50.2,48.5,30.28,North,5,1.0,1.0,94,0.00,,,0.01,Wunderground v.1.15,2013-10-29 13:18:00,
2013-10-29 09:24:00,50.5,48.6,30.29,North,360,1.0,1.0,93,0.00,,,0.01,Wunderground v.1.15,2013-10-29 13:24:00,
2013-10-29 09:30:00,50.9,48.9,30.29,NNW,330,0.0,1.0,93,0.00,,,0.01,Wunderground v.1.15,2013-10-29 13:30:00,
2013-10-29 09:36:00,51.3,49.1,30.29,NNW,331,0.0,2.0,92,0.00,,,0.01,Wunderground v.1.15,2013-10-29 13:36:00,
2013-10-29 09:41:00,51.6,49.4,30.29,NW,322,1.0,1.0,92,0.00,,,0.01,Wunderground v.1.15,2013-10-29 13:41:00,
2013-10-29 09:48:00,51.9,49.4,30.29,NNW,327,0.0,0.0,91,0.00,,,0.01,Wunderground v.1.15,2013-10-29 13:48:00,
2013-10-29 09:54:00,52.2,49.7,30.28,NNW,327,0.0,1.0,91,0.00,,,0.01,Wunderground v.1.15,2013-10-29 13:54:00,
2013-10-29 10:00:00,52.6,49.8,30.28,NNW,327,0.0,0.0,90,0.00,,,0.01,Wunderground v.1.15,2013-10-29 14:00:00,
2013-10-29 10:06:00,53.2,50.3,30.28,NNW,327,0.0,0.0,90,0.00,,,0.01,Wunderground v.1.15,2013-10-29 14:06:00,
2013-10-29 10:11:00,53.5,50.6,30.28,NNW,327,0.0,0.0,90,0.00,,,0.01,Wunderground v.1.15,2013-10-29 14:11:00,
2013-10-29 10:17:00,53.8,50.9,30.27,NNW,327,0.0,0.0,90,0.00,,,0.01,Wunderground v.1.15,2013-10-29 14:17:00,
2013-10-29 10:22:00,54.2,51.3,30.27,NNW,327,0.0,0.0,90,0.00,,,0.01,Wunderground v.1.15,2013-10-29 14:22:00,
2013-10-29 10:27:00,54.5,51.0,30.27,NNW,328,0.0,0.0,88,0.00,,,0.01,Wunderground v.1.15,2013-10-29 14:27:00,
2013-10-29 10:33:00,55.1,51.3,30.27,NNW,328,0.0,1.0,87,0.00,,,0.01,Wunderground v.1.15,2013-10-29 14:33:00,
2013-10-29 10:38:00,55.5,51.7,30.28,NNW,328,0.0,1.0,87,0.00,,,0.01,Wunderground v.1.15,2013-10-29 14:38:00,
2013-10-29 10:44:00,55.9,51.5,30.27,NW,304,0.0,1.0,85,0.00,,,0.01,Wunderground v.1.15,2013-10-29 14:44:00,
2013-10-29 10:49:00,56.1,51.7,30.27,WNW,296,0.0,0.0,85,0.00,,,0.01,Wunderground v.1.15,2013-10-29 14:49:00,
2013-10-29 10:55:00,56.5,51.4,30.28,WNW,292,0.0,0.0,83,0.00,,,0.01,Wunderground v.1.15,2013-10-29 14:55:00,
2013-10-29 11:00:00,56.9,50.5,30.28,West,275,0.0,0.0,79,0.00,,,0.01,Wunderground v.1.15,2013-10-29 15:00:00,
2013-10-29 11:06:00,57.3,50.8,30.28,West,275,0.0,0.0,79,0.00,,,0.01,Wunderground v.1.15,2013-10-29 15:06:00,
2013-10-29 11:12:00,57.9,50.4,30.28,West,275,0.0,0.0,76,0.00,,,0.01,Wunderground v.1.15,2013-10-29 15:12:00,
2013-10-29 11:17:00,58.4,50.1,30.28,West,275,0.0,1.0,74,0.00,,,0.01,Wunderground v.1.15,2013-10-29 15:17:00,
2013-10-29 11:22:00,59.0,50.7,30.28,West,261,0.0,1.0,74,0.00,,,0.01,Wunderground v.1.15,2013-10-29 15:22:00,
2013-10-29 11:28:00,59.6,50.9,30.28,NNW,341,0.0,1.0,73,0.00,,,0.01,Wunderground v.1.15,2013-10-29 15:28:00,
2013-10-29 11:34:00,59.9,51.2,30.28,NNW,344,0.0,0.0,73,0.00,,,0.01,Wunderground v.1.15,2013-10-29 15:34:00,
2013-10-29 11:40:00,60.3,52.0,30.28,North,355,0.0,1.0,74,0.00,,,0.01,Wunderground v.1.15,2013-10-29 15:40:00,
2013-10-29 11:48:00,60.5,51.8,30.28,East,88,0.0,0.0,73,0.00,,,0.01,Wunderground v.1.15,2013-10-29 15:48:00,
2013-10-29 11:54:00,60.7,52.7,30.28,East,88,0.0,0.0,75,0.00,,,0.01,Wunderground v.1.15,2013-10-29 15:54:00,
2013-10-29 12:00:00,61.0,51.5,30.28,East,88,0.0,0.0,71,0.00,,,0.01,Wunderground v.1.15,2013-10-29 16:00:00,
2013-10-29 12:06:00,61.4,52.3,30.28,ENE,78,0.0,1.0,72,0.00,,,0.01,Wunderground v.1.15,2013-10-29 16:06:00,
2013-10-29 12:11:00,61.7,53.0,30.27,NE,49,1.0,1.0,73,0.00,,,0.01,Wunderground v.1.15,2013-10-29 16:11:00,
2013-10-29 12:17:00,62.2,51.9,30.27,SSW,204,0.0,1.0,69,0.00,,,0.01,Wunderground v.1.15,2013-10-29 16:17:00,
2013-10-29 12:23:00,62.5,52.2,30.26,ESE,113,1.0,2.0,69,0.00,,,0.01,Wunderground v.1.15,2013-10-29 16:23:00,
2013-10-29 12:29:00,63.1,52.4,30.26,SE,126,1.0,2.0,68,0.00,,,0.01,Wunderground v.1.15,2013-10-29 16:29:00,
2013-10-29 12:35:00,63.3,53.0,30.25,NW,306,1.0,2.0,69,0.00,,,0.01,Wunderground v.1.15,2013-10-29 16:35:00,
2013-10-29 12:41:00,63.9,53.5,30.25,NNW,340,1.0,1.0,69,0.00,,,0.01,Wunderground v.1.15,2013-10-29 16:41:00,
2013-10-29 12:48:00,64.8,52.8,30.25,North,355,0.0,1.0,65,0.00,,,0.01,Wunderground v.1.15,2013-10-29 16:48:00,
2013-10-29 12:54:00,64.7,51.4,30.25,NE,40,0.0,2.0,62,0.00,,,0.01,Wunderground v.1.15,2013-10-29 16:54:00,
2013-10-29 12:59:00,64.5,52.5,30.25,NE,37,0.0,2.0,65,0.00,,,0.01,Wunderground v.1.15,2013-10-29 16:59:00,
2013-10-29 13:04:00,64.3,51.9,30.25,ESE,110,0.0,0.0,64,0.00,,,0.01,Wunderground v.1.15,2013-10-29 17:04:00,
2013-10-29 13:10:00,64.0,52.8,30.25,ESE,110,0.0,0.0,67,0.00,,,0.01,Wunderground v.1.15,2013-10-29 17:10:00,
2013-10-29 13:15:00,63.8,52.2,30.24,ESE,110,0.0,0.0,66,0.00,,,0.01,Wunderground v.1.15,2013-10-29 17:15:00,
2013-10-29 13:20:00,63.3,51.3,30.25,ESE,110,0.0,0.0,65,0.00,,,0.01,Wunderground v.1.15,2013-10-29 17:20:00,
2013-10-29 13:25:00,63.0,51.9,30.24,ESE,110,0.0,0.0,67,0.00,,,0.01,Wunderground v.1.15,2013-10-29 17:25:00,
2013-10-29 13:31:00,62.7,51.2,30.23,ESE,110,0.0,0.0,66,0.00,,,0.01,Wunderground v.1.15,2013-10-29 17:31:00,
2013-10-29 13:37:00,62.6,51.1,30.23,ESE,110,0.0,1.0,66,0.00,,,0.01,Wunderground v.1.15,2013-10-29 17:37:00,
2013-10-29 13:42:00,62.6,51.5,30.23,ESE,110,0.0,1.0,67,0.00,,,0.01,Wunderground v.1.15,2013-10-29 17:42:00,
2013-10-29 13:48:00,62.6,51.5,30.22,ESE,110,0.0,0.0,67,0.00,,,0.01,Wunderground v.1.15,2013-10-29 17:48:00,
2013-10-29 13:54:00,62.8,52.9,30.21,ESE,110,0.0,0.0,70,0.00,,,0.01,Wunderground v.1.15,2013-10-29 17:54:00,
2013-10-29 14:00:00,62.9,52.2,30.21,ESE,110,0.0,0.0,68,0.00,,,0.01,Wunderground v.1.15,2013-10-29 18:00:00,
2013-10-29 14:06:00,63.1,52.0,30.21,ESE,111,0.0,1.0,67,0.00,,,0.01,Wunderground v.1.15,2013-10-29 18:06:00,
2013-10-29 14:12:00,63.3,52.2,30.21,ESE,111,0.0,0.0,67,0.00,,,0.01,Wunderground v.1.15,2013-10-29 18:12:00,
2013-10-29 14:18:00,63.5,53.5,30.20,ESE,111,0.0,1.0,70,0.00,,,0.01,Wunderground v.1.15,2013-10-29 18:18:00,
2013-10-29 14:23:00,63.6,52.4,30.19,ESE,123,0.0,0.0,67,0.00,,,0.01,Wunderground v.1.15,2013-10-29 18:23:00,
2013-10-29 14:29:00,63.9,53.1,30.19,SSW,196,0.0,1.0,68,0.00,,,0.01,Wunderground v.1.15,2013-10-29 18:29:00,
2013-10-29 14:35:00,64.0,52.8,30.19,SSW,195,0.0,0.0,67,0.00,,,0.01,Wunderground v.1.15,2013-10-29 18:35:00,
2013-10-29 14:41:00,64.1,53.7,30.19,SSE,159,0.0,0.0,69,0.00,,,0.01,Wunderground v.1.15,2013-10-29 18:41:00,
2013-10-29 14:48:00,63.9,53.5,30.19,SSE,159,0.0,0.0,69,0.00,,,0.01,Wunderground v.1.15,2013-10-29 18:48:00,
2013-10-29 14:54:00,63.7,54.9,30.18,SSE,159,0.0,0.0,73,0.00,,,0.01,Wunderground v.1.15,2013-10-29 18:54:00,
2013-10-29 14:59:00,63.4,53.4,30.18,SSE,159,0.0,1.0,70,0.00,,,0.01,Wunderground v.1.15,2013-10-29 18:59:00,
2013-10-29 15:04:00,63.2,52.5,30.18,East,98,0.0,1.0,68,0.00,,,0.01,Wunderground v.1.15,2013-10-29 19:04:00,
2013-10-29 15:10:00,63.1,53.9,30.18,East,98,0.0,0.0,72,0.00,,,0.01,Wunderground v.1.15,2013-10-29 19:10:00,
2013-10-29 15:15:00,62.9,53.4,30.18,East,98,0.0,0.0,71,0.00,,,0.01,Wunderground v.1.15,2013-10-29 19:15:00,
2013-10-29 15:20:00,62.8,55.1,30.17,East,98,0.0,0.0,76,0.00,,,0.01,Wunderground v.1.15,2013-10-29 19:20:00,
2013-10-29 15:25:00,62.9,55.2,30.17,East,98,0.0,0.0,76,0.00,,,0.01,Wunderground v.1.15,2013-10-29 19:25:00,
2013-10-29 15:31:00,63.3,53.0,30.17,South,186,0.0,1.0,69,0.00,,,0.01,Wunderground v.1.15,2013-10-29 19:31:00,
2013-10-29 15:37:00,63.6,52.8,30.16,South,188,0.0,1.0,68,0.00,,,0.01,Wunderground v.1.15,2013-10-29 19:37:00,
2013-10-29 15:43:00,63.5,53.1,30.17,South,188,0.0,0.0,69,0.00,,,0.01,Wunderground v.1.15,2013-10-29 19:43:00,
2013-10-29 15:48:00,63.3,53.3,30.17,South,188,0.0,0.0,70,0.00,,,0.01,Wunderground v.1.15,2013-10-29 19:48:00,
2013-10-29 15:54:00,63.2,54.0,30.17,South,188,0.0,0.0,72,0.00,,,0.01,Wunderground v.1.15,2013-10-29 19:54:00,
2013-10-29 15:59:00,63.2,54.4,30.17,South,188,0.0,1.0,73,0.00,,,0.01,Wunderground v.1.15,2013-10-29 19:59:00,
2013-10-29 16:04:00,63.1,53.2,30.17,South,188,0.0,0.0,70,0.00,,,0.01,Wunderground v.1.15,2013-10-29 20:04:00,
2013-10-29 16:09:00,63.1,54.7,30.17,South,188,0.0,0.0,74,0.00,,,0.01,Wunderground v.1.15,2013-10-29 20:09:00,
2013-10-29 16:14:00,63.1,54.3,30.17,South,188,0.0,0.0,73,0.00,,,0.01,Wunderground v.1.15,2013-10-29 20:14:00,
2013-10-29 16:20:00,63.0,54.2,30.17,South,188,0.0,0.0,73,0.00,,,0.01,Wunderground v.1.15,2013-10-29 20:20:00,
2013-10-29 16:25:00,63.1,54.3,30.17,South,188,0.0,0.0,73,0.00,,,0.01,Wunderground v.1.15,2013-10-29 20:25:00,
2013-10-29 16:31:00,63.1,54.7,30.17,South,188,0.0,0.0,74,0.00,,,0.01,Wunderground v.1.15,2013-10-29 20:31:00,
2013-10-29 16:37:00,63.0,54.2,30.17,South,188,0.0,0.0,73,0.00,,,0.01,Wunderground v.1.15,2013-10-29 20:37:00,
2013-10-29 16:43:00,63.0,54.9,30.17,South,188,0.0,0.0,75,0.00,,,0.01,Wunderground v.1.15,2013-10-29 20:43:00,
2013-10-29 16:48:00,63.0,55.3,30.17,South,188,0.0,0.0,76,0.00,,,0.01,Wunderground v.1.15,2013-10-29 20:48:00,
2013-10-29 16:54:00,62.9,54.1,30.17,South,188,0.0,0.0,73,0.00,,,0.01,Wunderground v.1.15,2013-10-29 20:54:00,
2013-10-29 16:59:00,62.9,55.6,30.17,South,188,0.0,0.0,77,0.00,,,0.01,Wunderground v.1.15,2013-10-29 20:59:00,
2013-10-29 17:04:00,62.8,54.0,30.17,South,188,0.0,0.0,73,0.00,,,0.01,Wunderground v.1.15,2013-10-29 21:04:00,
2013-10-29 17:10:00,62.7,53.9,30.17,South,188,0.0,0.0,73,0.00,,,0.01,Wunderground v.1.15,2013-10-29 21:10:00,
2013-10-29 17:15:00,62.7,53.9,30.17,South,188,0.0,0.0,73,0.00,,,0.01,Wunderground v.1.15,2013-10-29 21:15:00,
2013-10-29 17:21:00,62.5,54.5,30.17,South,188,0.0,0.0,75,0.00,,,0.01,Wunderground v.1.15,2013-10-29 21:21:00,
2013-10-29 17:26:00,62.1,54.4,30.17,South,188,0.0,0.0,76,0.00,,,0.01,Wunderground v.1.15,2013-10-29 21:26:00,
2013-10-29 17:32:00,61.7,55.1,30.17,South,188,0.0,0.0,79,0.00,,,0.01,Wunderground v.1.15,2013-10-29 21:32:00,
2013-10-29 17:37:00,61.5,55.3,30.17,South,188,0.0,0.0,80,0.00,,,0.01,Wunderground v.1.15,2013-10-29 21:37:00,
2013-10-29 17:43:00,61.1,54.9,30.17,South,188,0.0,0.0,80,0.00,,,0.01,Wunderground v.1.15,2013-10-29 21:43:00,
2013-10-29 17:48:00,60.8,54.6,30.17,South,188,0.0,0.0,80,0.00,,,0.01,Wunderground v.1.15,2013-10-29 21:48:00,
2013-10-29 17:54:00,60.5,54.6,30.17,South,188,0.0,0.0,81,0.00,,,0.01,Wunderground v.1.15,2013-10-29 21:54:00,
2013-10-29 18:00:00,60.2,54.7,30.17,South,188,0.0,0.0,82,0.00,,,0.01,Wunderground v.1.15,2013-10-29 22:00:00,
2013-10-29 18:06:00,59.9,54.7,30.17,South,188,0.0,0.0,83,0.00,,,0.01,Wunderground v.1.15,2013-10-29 22:06:00,
2013-10-29 18:12:00,59.5,54.3,30.17,South,188,0.0,0.0,83,0.00,,,0.01,Wunderground v.1.15,2013-10-29 22:12:00,
2013-10-29 18:18:00,59.2,54.4,30.18,South,188,0.0,0.0,84,0.00,,,0.01,Wunderground v.1.15,2013-10-29 22:18:00,
2013-10-29 18:24:00,59.0,54.5,30.18,South,188,0.0,0.0,85,0.00,,,0.01,Wunderground v.1.15,2013-10-29 22:24:00,
2013-10-29 18:30:00,58.8,54.3,30.19,South,188,0.0,0.0,85,0.00,,,0.01,Wunderground v.1.15,2013-10-29 22:30:00,
2013-10-29 18:35:00,58.6,54.1,30.19,South,188,0.0,0.0,85,0.00,,,0.01,Wunderground v.1.15,2013-10-29 22:35:00,
2013-10-29 18:40:00,58.5,54.3,30.19,South,188,0.0,0.0,86,0.00,,,0.01,Wunderground v.1.15,2013-10-29 22:40:00,
2013-10-29 18:49:00,58.2,54.0,30.19,South,188,0.0,0.0,86,0.00,,,0.01,Wunderground v.1.15,2013-10-29 22:49:00,
2013-10-29 18:55:00,58.0,53.8,30.19,South,188,0.0,0.0,86,0.00,,,0.01,Wunderground v.1.15,2013-10-29 22:55:00,
2013-10-29 19:00:00,57.8,54.0,30.19,South,188,0.0,0.0,87,0.00,,,0.01,Wunderground v.1.15,2013-10-29 23:00:00,
2013-10-29 19:06:00,57.6,53.8,30.19,South,188,0.0,0.0,87,0.00,,,0.01,Wunderground v.1.15,2013-10-29 23:06:00,
2013-10-29 19:12:00,57.4,53.6,30.19,South,188,0.0,0.0,87,0.00,,,0.01,Wunderground v.1.15,2013-10-29 23:12:00,
2013-10-29 19:18:00,57.2,53.4,30.19,South,188,0.0,0.0,87,0.00,,,0.01,Wunderground v.1.15,2013-10-29 23:18:00,
2013-10-29 19:23:00,57.0,53.2,30.19,South,188,0.0,0.0,87,0.00,,,0.01,Wunderground v.1.15,2013-10-29 23:23:00,
2013-10-29 19:28:00,56.8,53.3,30.19,South,188,0.0,0.0,88,0.00,,,0.01,Wunderground v.1.15,2013-10-29 23:28:00,
2013-10-29 19:34:00,56.5,53.0,30.19,South,188,0.0,0.0,88,0.00,,,0.01,Wunderground v.1.15,2013-10-29 23:34:00,
2013-10-29 19:40:00,56.2,53.0,30.19,South,188,0.0,0.0,89,0.00,,,0.01,Wunderground v.1.15,2013-10-29 23:40:00,
2013-10-29 19:48:00,55.8,52.6,30.19,South,188,0.0,0.0,89,0.00,,,0.01,Wunderground v.1.15,2013-10-29 23:48:00,
2013-10-29 19:54:00,55.6,52.7,30.19,South,188,0.0,0.0,90,0.00,,,0.01,Wunderground v.1.15,2013-10-29 23:54:00,
2013-10-29 20:00:00,55.4,52.5,30.19,South,188,0.0,0.0,90,0.00,,,0.01,Wunderground v.1.15,2013-10-30 00:00:00,
2013-10-29 20:06:00,55.2,52.3,30.20,South,188,0.0,0.0,90,0.00,,,0.01,Wunderground v.1.15,2013-10-30 00:06:00,
2013-10-29 20:11:00,55.1,52.5,30.20,South,188,0.0,0.0,91,0.00,,,0.01,Wunderground v.1.15,2013-10-30 00:11:00,
2013-10-29 20:17:00,54.9,52.3,30.20,South,188,0.0,0.0,91,0.00,,,0.01,Wunderground v.1.15,2013-10-30 00:17:00,
2013-10-29 20:23:00,54.8,52.2,30.20,South,188,0.0,0.0,91,0.00,,,0.01,Wunderground v.1.15,2013-10-30 00:23:00,
2013-10-29 20:28:00,54.7,52.1,30.20,South,188,0.0,0.0,91,0.00,,,0.01,Wunderground v.1.15,2013-10-30 00:28:00,
2013-10-29 20:33:00,54.6,52.0,30.20,South,188,0.0,0.0,91,0.00,,,0.01,Wunderground v.1.15,2013-10-30 00:33:00,
2013-10-29 20:38:00,54.6,52.3,30.20,South,188,0.0,0.0,92,0.00,,,0.01,Wunderground v.1.15,2013-10-30 00:38:00,
2013-10-29 20:44:00,54.5,52.2,30.20,South,188,0.0,0.0,92,0.00,,,0.01,Wunderground v.1.15,2013-10-30 00:44:00,
2013-10-29 20:50:00,54.4,52.1,30.20,South,188,0.0,0.0,92,0.00,,,0.01,Wunderground v.1.15,2013-10-30 00:50:00,
2013-10-29 20:56:00,54.3,52.0,30.20,South,188,0.0,0.0,92,0.00,,,0.01,Wunderground v.1.15,2013-10-30 00:56:00,
2013-10-29 21:01:00,54.2,51.9,30.20,South,188,0.0,0.0,92,0.00,,,0.01,Wunderground v.1.15,2013-10-30 01:01:00,
2013-10-29 21:07:00,54.1,51.8,30.20,South,188,0.0,0.0,92,0.00,,,0.01,Wunderground v.1.15,2013-10-30 01:07:00,
2013-10-29 21:13:00,54.1,52.1,30.20,South,188,0.0,0.0,93,0.00,,,0.01,Wunderground v.1.15,2013-10-30 01:13:00,
2013-10-29 21:18:00,54.0,52.0,30.20,South,188,0.0,0.0,93,0.00,,,0.01,Wunderground v.1.15,2013-10-30 01:18:00,
2013-10-29 21:23:00,53.9,51.9,30.20,South,188,0.0,0.0,93,0.00,,,0.01,Wunderground v.1.15,2013-10-30 01:23:00,
2013-10-29 21:29:00,53.9,51.9,30.20,South,188,0.0,0.0,93,0.00,,,0.01,Wunderground v.1.15,2013-10-30 01:29:00,
2013-10-29 21:35:00,53.7,51.7,30.21,South,188,0.0,0.0,93,0.00,,,0.01,Wunderground v.1.15,2013-10-30 01:35:00,
2013-10-29 21:41:00,53.7,51.7,30.21,South,188,0.0,0.0,93,0.00,,,0.01,Wunderground v.1.15,2013-10-30 01:41:00,
2013-10-29 21:48:00,53.6,51.6,30.20,South,188,0.0,0.0,93,0.00,,,0.01,Wunderground v.1.15,2013-10-30 01:48:00,
2013-10-29 21:54:00,53.6,51.6,30.20,South,188,0.0,0.0,93,0.00,,,0.01,Wunderground v.1.15,2013-10-30 01:54:00,
2013-10-29 21:59:00,53.5,51.5,30.20,South,188,0.0,1.0,93,0.00,,,0.01,Wunderground v.1.15,2013-10-30 01:59:00,
2013-10-29 22:04:00,53.5,51.8,30.20,South,188,0.0,0.0,94,0.00,,,0.01,Wunderground v.1.15,2013-10-30 02:04:00,
2013-10-29 22:10:00,53.6,51.9,30.20,South,188,0.0,0.0,94,0.00,,,0.01,Wunderground v.1.15,2013-10-30 02:10:00,
2013-10-29 22:16:00,53.5,51.8,30.20,South,188,0.0,0.0,94,0.00,,,0.01,Wunderground v.1.15,2013-10-30 02:16:00,
2013-10-29 22:22:00,53.5,51.8,30.19,South,188,0.0,0.0,94,0.00,,,0.01,Wunderground v.1.15,2013-10-30 02:22:00,
2013-10-29 22:27:00,53.5,51.8,30.20,South,188,0.0,0.0,94,0.00,,,0.01,Wunderground v.1.15,2013-10-30 02:27:00,
2013-10-29 22:33:00,53.5,51.8,30.20,South,188,0.0,0.0,94,0.00,,,0.01,Wunderground v.1.15,2013-10-30 02:33:00,
2013-10-29 22:38:00,53.5,51.8,30.20,South,188,0.0,0.0,94,0.00,,,0.01,Wunderground v.1.15,2013-10-30 02:38:00,
2013-10-29 22:43:00,53.6,51.9,30.20,South,188,0.0,0.0,94,0.00,,,0.01,Wunderground v.1.15,2013-10-30 02:43:00,
2013-10-29 22:48:00,53.6,51.9,30.20,South,188,0.0,0.0,94,0.00,,,0.01,Wunderground v.1.15,2013-10-30 02:48:00,
2013-10-29 22:53:00,53.6,51.9,30.21,South,188,0.0,0.0,94,0.00,,,0.01,Wunderground v.1.15,2013-10-30 02:53:00,
2013-10-29 22:59:00,53.7,52.0,30.21,South,188,0.0,0.0,94,0.00,,,0.01,Wunderground v.1.15,2013-10-30 02:59:00,
2013-10-29 23:05:00,53.7,52.0,30.21,South,188,0.0,0.0,94,0.00,,,0.01,Wunderground v.1.15,2013-10-30 03:05:00,
2013-10-29 23:11:00,53.8,52.1,30.21,South,188,0.0,0.0,94,0.00,,,0.01,Wunderground v.1.15,2013-10-30 03:11:00,
2013-10-29 23:16:00,53.8,52.1,30.21,South,188,0.0,0.0,94,0.00,,,0.01,Wunderground v.1.15,2013-10-30 03:16:00,
2013-10-29 23:21:00,53.9,52.2,30.22,South,188,0.0,0.0,94,0.00,,,0.01,Wunderground v.1.15,2013-10-30 03:21:00,
2013-10-29 23:27:00,53.9,52.5,30.21,South,188,0.0,0.0,95,0.00,,,0.01,Wunderground v.1.15,2013-10-30 03:27:00,
2013-10-29 23:33:00,54.0,52.6,30.22,South,188,0.0,0.0,95,0.00,,,0.01,Wunderground v.1.15,2013-10-30 03:33:00,
2013-10-29 23:39:00,54.1,52.7,30.21,South,188,0.0,0.0,95,0.00,,,0.01,Wunderground v.1.15,2013-10-30 03:39:00,
2013-10-29 23:44:00,54.2,52.8,30.21,South,188,0.0,0.0,95,0.00,,,0.01,Wunderground v.1.15,2013-10-30 03:44:00,
2013-10-29 23:50:00,54.4,53.0,30.21,South,188,0.0,0.0,95,0.00,,,0.01,Wunderground v.1.15,2013-10-30 03:50:00,
2013-10-29 23:56:00,54.5,53.1,30.21,South,188,0.0,0.0,95,0.00,,,0.01,Wunderground v.1.15,2013-10-30 03:56:00,